Time;durP1;ratioP1;P1;durP2;ratioP2;P2;SDS_P1;SDS_P2;PMS_P1;PMS_P2;Temp;Humidity;BMP_temperature;BMP_pressure;BME280_temperature;BME280_humidity;BME280_pressure;Samples;Min_cycle;Max_cycle;Signal;HPM_P1;HPM_P2
2023/08/12 00:01:34;;;;;;;17.92;13.77;;;;;;;20.07;100.00;101752.69;4901709;29;20529;-77
2023/08/12 00:03:59;;;;;;;18.15;14.23;;;;;;;20.12;100.00;101752.28;4918533;29;20385;-77
2023/08/12 00:06:25;;;;;;;21.73;14.05;;;;;;;20.06;100.00;101751.03;4918122;29;20064;-77
2023/08/12 00:08:50;;;;;;;20.98;14.23;;;;;;;20.12;100.00;101760.13;4917215;29;20060;-77
2023/08/12 00:11:15;;;;;;;19.38;14.32;;;;;;;20.13;100.00;101751.31;4918255;29;20035;-77
2023/08/12 00:13:40;;;;;;;17.88;13.93;;;;;;;20.13;100.00;101756.53;4918374;29;20114;-77
2023/08/12 00:16:06;;;;;;;16.05;14.07;;;;;;;20.07;100.00;101754.50;4918219;29;20024;-79
2023/08/12 00:18:36;;;;;;;20.23;14.18;;;;;;;19.96;100.00;101734.44;4918470;29;20028;-78
2023/08/12 00:21:09;;;;;;;18.42;14.07;;;;;;;19.90;100.00;101727.97;4918157;29;20031;-77
2023/08/12 00:23:44;;;;;;;19.08;14.32;;;;;;;19.83;100.00;101708.47;4918270;29;20028;-78
2023/08/12 00:26:09;;;;;;;17.67;14.10;;;;;;;19.88;100.00;101714.16;4918283;29;20180;-77
2023/08/12 00:28:35;;;;;;;18.40;14.20;;;;;;;20.03;100.00;101741.63;4917948;29;20024;-78
2023/08/12 00:31:00;;;;;;;19.75;14.27;;;;;;;19.99;100.00;101724.53;4917935;29;20087;-79
2023/08/12 00:33:26;;;;;;;21.05;14.88;;;;;;;20.03;100.00;101731.13;4901008;29;20063;-81
2023/08/12 00:35:51;;;;;;;18.25;14.43;;;;;;;20.02;100.00;101728.66;4917828;29;20039;-78
2023/08/12 00:38:16;;;;;;;17.38;14.52;;;;;;;19.96;100.00;101716.06;4917979;29;20056;-78
2023/08/12 00:40:42;;;;;;;19.40;14.55;;;;;;;20.01;100.00;101727.84;4918062;29;20036;-81
2023/08/12 00:43:09;;;;;;;21.92;14.70;;;;;;;19.87;100.00;101696.78;4917992;29;20024;-77
2023/08/12 00:45:34;;;;;;;17.35;14.60;;;;;;;19.91;100.00;101698.16;4917478;29;20030;-77
2023/08/12 00:47:59;;;;;;;18.70;13.95;;;;;;;19.80;100.00;101679.94;4917674;29;20379;-79
2023/08/12 00:50:25;;;;;;;18.98;13.70;;;;;;;19.89;100.00;101692.22;4917820;29;20032;-77
2023/08/12 00:52:51;;;;;;;19.27;14.90;;;;;;;19.88;100.00;101694.97;4917365;29;20538;-81
2023/08/12 00:55:17;;;;;;;17.58;14.02;;;;;;;19.92;100.00;101706.84;4917581;29;20032;-80
2023/08/12 00:57:43;;;;;;;17.23;14.65;;;;;;;19.79;100.00;101686.13;4917545;29;20028;-80
2023/08/12 01:00:09;;;;;;;17.50;14.25;;;;;;;19.94;100.00;101710.97;4917431;29;20107;-81
2023/08/12 01:02:34;;;;;;;21.08;14.82;;;;;;;19.84;100.00;101689.16;4917211;29;20035;-79
2023/08/12 01:04:59;;;;;;;19.05;13.48;;;;;;;19.96;100.00;101708.22;4917523;29;20028;-79
2023/08/12 01:07:25;;;;;;;20.10;15.05;;;;;;;19.73;100.00;101670.94;4917394;29;20028;-79
2023/08/12 01:09:50;;;;;;;17.55;15.07;;;;;;;19.79;100.00;101670.41;4917697;29;20032;-80
2023/08/12 01:12:28;;;;;;;21.50;14.90;;;;;;;19.86;100.00;101689.03;4917372;29;20036;-79
2023/08/12 01:15:02;;;;;;;17.98;14.98;;;;;;;19.81;100.00;101673.72;4917230;29;20036;-80
2023/08/12 01:17:30;;;;;;;19.95;15.40;;;;;;;19.72;100.00;101671.91;4917120;29;20031;-79
2023/08/12 01:19:56;;;;;;;20.70;15.10;;;;;;;19.81;100.00;101675.50;4917189;29;20032;-79
2023/08/12 01:22:25;;;;;;;21.13;15.50;;;;;;;19.89;100.00;101681.75;4916671;29;20028;-79
2023/08/12 01:24:51;;;;;;;20.15;14.98;;;;;;;19.69;100.00;101643.38;4917128;29;20028;-79
2023/08/12 01:27:16;;;;;;;23.60;16.23;;;;;;;19.86;100.00;101675.91;4917218;29;20397;-79
2023/08/12 01:29:45;;;;;;;20.02;16.05;;;;;;;19.84;100.00;101667.38;4916705;29;20040;-80
2023/08/12 01:32:49;;;;;;;19.00;15.40;;;;;;;19.85;100.00;101666.41;4917132;29;20048;-79
2023/08/12 01:35:23;;;;;;;22.00;17.00;;;;;;;19.83;100.00;101661.31;4916497;29;20099;-81
2023/08/12 01:37:51;;;;;;;20.67;16.17;;;;;;;19.84;100.00;101656.88;4917028;29;20024;-82
2023/08/12 01:40:18;;;;;;;20.70;16.27;;;;;;;19.65;100.00;101627.06;4917012;29;20034;-81
2023/08/12 01:42:45;;;;;;;23.35;17.73;;;;;;;19.80;100.00;101655.50;4916929;29;20028;-81
2023/08/12 01:45:10;;;;;;;20.92;16.50;;;;;;;19.80;100.00;101658.13;4916361;29;20036;-81
2023/08/12 01:47:36;;;;;;;22.10;17.52;;;;;;;19.62;100.00;101623.91;4916861;29;20028;-81
2023/08/12 01:50:01;;;;;;;21.00;16.33;;;;;;;19.65;100.00;101634.09;4916947;29;20197;-80
2023/08/12 01:52:26;;;;;;;25.63;16.90;;;;;;;19.61;100.00;101641.41;4916923;29;20119;-81
2023/08/12 01:54:52;;;;;;;21.52;17.35;;;;;;;19.73;100.00;101658.66;4916719;29;20032;-81
2023/08/12 01:57:17;;;;;;;24.65;17.92;;;;;;;19.69;100.00;101644.19;4916810;29;20462;-81
2023/08/12 01:59:45;;;;;;;24.00;18.00;;;;;;;19.48;100.00;101615.44;4916458;29;20035;-81
2023/08/12 02:02:11;;;;;;;25.90;17.92;;;;;;;19.64;100.00;101640.31;4916421;29;20028;-81
2023/08/12 02:04:37;;;;;;;21.95;17.88;;;;;;;19.59;100.00;101645.13;4916569;29;20378;-80
2023/08/12 02:07:03;;;;;;;24.95;17.52;;;;;;;19.40;100.00;101623.16;4916417;29;20086;-81
2023/08/12 02:09:29;;;;;;;22.90;17.52;;;;;;;19.42;100.00;101626.44;4916716;29;20096;-81
2023/08/12 02:11:54;;;;;;;21.15;17.65;;;;;;;19.40;100.00;101622.31;4916445;29;20117;-79
2023/08/12 02:14:19;;;;;;;22.45;17.67;;;;;;;19.58;100.00;101643.50;4916568;29;20056;-80
2023/08/12 02:16:45;;;;;;;23.98;17.55;;;;;;;19.58;100.00;101636.44;4916239;29;20032;-79
2023/08/12 02:19:10;;;;;;;23.55;17.23;;;;;;;19.51;100.00;101630.06;4916363;29;20078;-79
2023/08/12 02:21:35;;;;;;;22.40;16.75;;;;;;;19.61;100.00;101641.41;4916517;29;20078;-78
2023/08/12 02:24:01;;;;;;;20.17;16.73;;;;;;;19.58;100.00;101631.22;4916614;29;20024;-78
2023/08/12 02:26:26;;;;;;;19.98;15.90;;;;;;;19.52;100.00;101610.75;4916230;29;20386;-79
2023/08/12 02:28:51;;;;;;;22.90;16.13;;;;;;;19.53;100.00;101606.34;4916281;29;20076;-78
2023/08/12 02:31:17;;;;;;;19.83;16.90;;;;;;;19.53;100.00;101612.41;4915889;29;20065;-78
2023/08/12 02:33:43;;;;;;;19.50;15.38;;;;;;;19.66;100.00;101623.47;4917055;29;20028;-78
2023/08/12 02:36:09;;;;;;;18.98;15.32;;;;;;;19.63;100.00;101609.84;4920608;29;20542;-79
2023/08/12 02:38:34;;;;;;;21.15;15.27;;;;;;;19.52;100.00;101595.03;4920209;29;20371;-79
2023/08/12 02:41:00;;;;;;;21.63;14.90;;;;;;;19.66;100.00;101615.63;4920129;29;20043;-79
2023/08/12 02:43:25;;;;;;;19.58;14.40;;;;;;;19.47;100.00;101576.28;4920021;29;20035;-78
2023/08/12 02:45:51;;;;;;;19.20;14.20;;;;;;;19.65;100.00;101611.34;4919799;29;20028;-77
2023/08/12 02:48:16;;;;;;;20.00;13.70;;;;;;;19.65;100.00;101605.28;4919624;29;20025;-77
2023/08/12 02:50:41;;;;;;;20.00;13.75;;;;;;;19.31;100.00;101547.16;4919985;29;20099;-80
2023/08/12 02:53:08;;;;;;;18.08;14.13;;;;;;;19.64;100.00;101601.00;4919543;29;20048;-77
2023/08/12 02:55:34;;;;;;;17.95;12.88;;;;;;;19.55;100.00;101586.91;4918464;29;20031;-77
2023/08/12 02:58:00;;;;;;;19.35;12.65;;;;;;;19.48;100.00;101578.78;4919854;29;20546;-77
2023/08/12 03:00:25;;;;;;;18.30;12.90;;;;;;;19.45;100.00;101579.03;4919759;29;20035;-77
2023/08/12 03:02:51;;;;;;;15.68;12.32;;;;;;;19.56;100.00;101585.97;4919356;29;20028;-77
2023/08/12 03:05:16;;;;;;;17.95;12.00;;;;;;;19.49;100.00;101577.81;4919783;29;20039;-77
2023/08/12 03:07:44;;;;;;;17.48;11.95;;;;;;;19.52;100.00;101584.56;4919610;29;20079;-77
2023/08/12 03:10:10;;;;;;;17.02;12.02;;;;;;;19.49;100.00;101588.28;4919672;29;20445;-77
2023/08/12 03:12:35;;;;;;;16.00;11.82;;;;;;;19.24;100.00;101541.63;4919490;29;20040;-79
2023/08/12 03:15:02;;;;;;;17.80;11.50;;;;;;;19.45;100.00;101572.97;4919746;29;20028;-78
2023/08/12 03:17:27;;;;;;;15.90;11.55;;;;;;;19.21;100.00;101544.53;4919205;29;20398;-79
2023/08/12 03:19:54;;;;;;;16.50;12.05;;;;;;;19.32;100.00;101565.38;4919225;29;20035;-77
2023/08/12 03:22:19;;;;;;;15.40;11.35;;;;;;;19.22;100.00;101554.03;4917881;29;20104;-77
2023/08/12 03:24:45;;;;;;;14.18;12.23;;;;;;;19.30;100.00;101563.84;4919300;29;20111;-77
2023/08/12 03:27:10;;;;;;;16.83;11.48;;;;;;;19.32;100.00;101575.00;4919112;29;20066;-78
2023/08/12 03:29:35;;;;;;;16.27;12.82;;;;;;;19.17;100.00;101554.47;4919086;29;20103;-79
2023/08/12 03:32:01;;;;;;;17.98;12.45;;;;;;;19.24;100.00;101562.59;4919016;29;20032;-79
2023/08/12 03:34:29;;;;;;;16.48;11.68;;;;;;;19.19;100.00;101544.69;4918913;29;20031;-79
2023/08/12 03:36:54;;;;;;;14.82;11.10;;;;;;;19.23;100.00;101539.16;4919218;29;20024;-79
2023/08/12 03:39:19;;;;;;;15.90;11.65;;;;;;;19.25;100.00;101545.91;4902134;29;20540;-78
2023/08/12 03:41:45;;;;;;;18.60;11.95;;;;;;;19.23;100.00;101550.47;4919045;29;20107;-78
2023/08/12 03:44:10;;;;;;;17.70;11.35;;;;;;;19.12;100.00;101530.47;4919046;29;20028;-79
2023/08/12 03:46:36;;;;;;;16.13;11.35;;;;;;;19.02;100.00;101532.22;4901343;29;20039;-79
2023/08/12 03:49:01;;;;;;;13.07;10.48;;;;;;;19.05;100.00;101545.03;4918849;29;20063;-79
2023/08/12 03:51:26;;;;;;;15.80;10.07;;;;;;;19.03;100.00;101546.97;4918681;29;20397;-80
2023/08/12 03:53:52;;;;;;;16.27;10.43;;;;;;;19.04;100.00;101540.78;4930225;29;20043;-79
2023/08/12 03:56:17;;;;;;;13.18;9.57;;;;;;;19.09;100.00;101548.25;4937966;29;20062;-79
2023/08/12 03:58:43;;;;;;;15.98;9.60;;;;;;;19.05;100.00;101544.22;4937723;29;20028;-80
2023/08/12 04:01:08;;;;;;;15.40;9.00;;;;;;;19.04;100.00;101537.31;4937556;29;20394;-80
2023/08/12 04:03:33;;;;;;;16.17;9.55;;;;;;;18.73;100.00;101482.44;4937550;29;20091;-80
2023/08/12 04:05:59;;;;;;;13.68;9.00;;;;;;;18.97;100.00;101518.69;4920220;29;20028;-80
2023/08/12 04:08:25;;;;;;;13.65;8.85;;;;;;;19.07;100.00;101540.50;4937709;29;20059;-80
2023/08/12 04:10:51;;;;;;;12.15;8.65;;;;;;;19.06;100.00;101531.00;4937653;29;20048;-79
2023/08/12 04:13:17;;;;;;;13.32;8.85;;;;;;;19.11;100.00;101528.81;4937538;29;20441;-79
2023/08/12 04:15:42;;;;;;;14.52;8.88;;;;;;;18.95;100.00;101507.53;4937322;29;20390;-80
2023/08/12 04:18:11;;;;;;;13.82;8.63;;;;;;;18.95;100.00;101498.88;4937042;29;20028;-80
2023/08/12 04:20:38;;;;;;;14.15;8.32;;;;;;;19.14;100.00;101523.28;4937400;29;20038;-80
2023/08/12 04:23:03;;;;;;;13.25;8.98;;;;;;;19.13;100.00;101516.41;4935082;29;20058;-79
2023/08/12 04:25:28;;;;;;;15.48;9.50;;;;;;;18.28;100.00;101369.50;4937265;29;20477;-80
2023/08/12 04:27:54;;;;;;;14.55;8.85;;;;;;;19.10;100.00;101490.50;4937157;29;20023;-79
2023/08/12 04:30:20;;;;;;;12.75;8.65;;;;;;;18.95;100.00;101464.84;4937162;29;20095;-80
2023/08/12 04:32:45;;;;;;;10.95;8.60;;;;;;;19.20;100.00;101501.81;4936813;29;20024;-80
2023/08/12 04:35:10;;;;;;;15.10;9.10;;;;;;;19.22;100.00;101498.22;4937166;29;20377;-79
2023/08/12 04:37:36;;;;;;;14.88;8.40;;;;;;;19.04;100.00;101479.75;4937039;29;20426;-80
2023/08/12 04:40:08;;;;;;;13.60;9.07;;;;;;;19.20;100.00;101512.28;4935735;29;20044;-79
2023/08/12 04:42:34;;;;;;;12.68;8.85;;;;;;;18.84;100.00;101453.53;4937134;29;20106;-79
2023/08/12 04:44:59;;;;;;;12.43;8.60;;;;;;;19.15;100.00;101509.22;4936940;29;20119;-80
2023/08/12 04:47:24;;;;;;;12.10;8.98;;;;;;;19.14;100.00;101512.81;4936466;29;20034;-80
2023/08/12 04:49:50;;;;;;;13.40;9.18;;;;;;;19.04;100.00;101498.88;4936567;29;20042;-80
2023/08/12 04:52:15;;;;;;;10.07;7.28;;;;;;;19.03;100.00;101491.16;4936543;29;20043;-80
2023/08/12 04:54:40;;;;;;;13.18;7.38;;;;;;;18.89;100.00;101458.38;4936725;29;20074;-80
2023/08/12 04:57:06;;;;;;;10.60;7.70;;;;;;;18.86;100.00;101469.91;4936061;29;20035;-80
2023/08/12 04:59:33;;;;;;;14.95;7.90;;;;;;;18.87;100.00;101479.41;4936416;29;20024;-80
2023/08/12 05:01:59;;;;;;;15.00;7.00;;;;;;;18.87;100.00;101499.53;4936369;29;20028;-79
2023/08/12 05:04:24;;;;;;;13.48;7.32;;;;;;;18.72;100.00;101479.94;4936262;29;20035;-79
2023/08/12 05:06:49;;;;;;;15.55;8.43;;;;;;;18.69;100.00;101483.66;4936166;29;20049;-79
2023/08/12 05:09:15;;;;;;;13.05;8.70;;;;;;;18.76;100.00;101499.66;4936685;29;20066;-79
2023/08/12 05:11:40;;;;;;;14.63;9.02;;;;;;;18.59;100.00;101469.69;4936450;29;20083;-78
2023/08/12 05:14:05;;;;;;;13.50;9.35;;;;;;;18.72;100.00;101482.56;4935930;29;20087;-79
2023/08/12 05:16:30;;;;;;;14.07;9.73;;;;;;;18.68;100.00;101481.16;4934583;29;20042;-79
2023/08/12 05:18:56;;;;;;;16.13;10.30;;;;;;;18.69;100.00;101491.53;4935895;29;20561;-79
2023/08/12 05:21:22;;;;;;;13.30;10.00;;;;;;;18.58;100.00;101476.72;4935998;29;20036;-79
2023/08/12 05:23:47;;;;;;;11.82;9.35;;;;;;;18.69;100.00;101475.81;4936171;29;20030;-79
2023/08/12 05:26:13;;;;;;;15.13;9.80;;;;;;;18.69;100.00;101477.63;4918732;29;20044;-79
2023/08/12 05:28:38;;;;;;;15.38;10.02;;;;;;;18.67;100.00;101485.56;4935962;29;20062;-79
2023/08/12 05:31:03;;;;;;;13.90;10.52;;;;;;;18.67;100.00;101482.94;4936255;29;20028;-78
2023/08/12 05:33:29;;;;;;;14.13;10.02;;;;;;;18.48;100.00;101457.53;4918578;29;20450;-78
2023/08/12 05:35:54;;;;;;;11.20;8.88;;;;;;;18.39;100.00;101437.41;4935866;29;20039;-79
2023/08/12 05:38:20;;;;;;;12.02;9.40;;;;;;;18.41;100.00;101440.72;4934686;29;20050;-79
2023/08/12 05:40:45;;;;;;;12.60;9.63;;;;;;;18.38;100.00;101433.13;4935847;29;20027;-78
2023/08/12 05:43:11;;;;;;;14.02;10.02;;;;;;;18.58;100.00;101463.63;4917931;29;20040;-79
2023/08/12 05:45:45;;;;;;;15.60;9.82;;;;;;;18.60;100.00;101472.19;4934525;29;20027;-79
2023/08/12 05:50:47;;;;;;;12.98;9.95;;;;;;;18.45;100.00;101436.03;5168845;23;20060;-79
2023/08/12 05:53:17;;;;;;;12.95;9.60;;;;;;;18.71;100.00;101480.91;4916650;29;20051;-79
2023/08/12 05:55:51;;;;;;;13.35;10.35;;;;;;;18.43;100.00;101412.66;4916151;29;20467;-79
2023/08/12 05:58:29;;;;;;;13.82;9.57;;;;;;;18.82;100.00;101462.47;4916514;29;20027;-79
2023/08/12 06:00:55;;;;;;;14.07;10.25;;;;;;;17.96;100.00;101315.63;4899733;29;20060;-80
2023/08/12 06:03:23;;;;;;;12.23;10.27;;;;;;;18.11;100.00;101336.19;4916582;29;20063;-80
2023/08/12 06:05:52;;;;;;;12.48;9.35;;;;;;;18.10;100.00;101331.94;4916455;29;20037;-80
2023/08/12 06:08:26;;;;;;;11.57;9.45;;;;;;;18.08;100.00;101325.97;4916353;29;20032;-80
2023/08/12 06:10:57;;;;;;;11.57;9.38;;;;;;;17.97;100.00;101299.00;4916421;29;20486;-81
2023/08/12 06:13:29;;;;;;;16.85;9.05;;;;;;;17.92;100.00;101293.34;4916482;29;20036;-77
2023/08/12 06:15:54;;;;;;;11.20;7.90;;;;;;;18.09;100.00;101306.72;4916600;29;20035;-80
2023/08/12 06:18:26;;;;;;;10.65;7.53;;;;;;;18.32;100.00;101347.38;4916492;29;20469;-80
2023/08/12 06:20:54;;;;;;;9.00;6.97;;;;;;;18.05;100.00;101299.16;4916313;29;20028;-81
2023/08/12 06:23:35;;;;;;;7.95;6.75;;;;;;;18.19;100.00;101312.81;4916523;29;20029;-80
2023/08/12 06:26:00;;;;;;;9.48;7.45;;;;;;;18.22;100.00;101305.53;4915201;29;20397;-80
2023/08/12 06:28:26;;;;;;;8.82;6.60;;;;;;;19.10;100.00;101443.38;4916579;29;20024;-80
2023/08/12 06:30:51;;;;;;;8.73;6.35;;;;;;;19.01;100.00;101430.28;4916430;29;20469;-80
2023/08/12 06:33:19;;;;;;;8.40;6.43;;;;;;;18.91;100.00;101410.16;4915928;29;20095;-79
2023/08/12 06:36:18;;;;;;;9.20;6.43;;;;;;;19.14;100.00;101441.31;4916525;29;20397;-79
2023/08/12 06:39:08;;;;;;;7.93;6.13;;;;;;;19.14;100.00;101433.44;4916383;29;20039;-80
2023/08/12 06:41:34;;;;;;;8.68;6.22;;;;;;;18.55;100.00;101337.50;4916377;29;20026;-79
2023/08/12 06:44:08;;;;;;;10.35;5.90;;;;;;;18.42;100.00;101311.63;4915937;29;20528;-80
2023/08/12 06:46:33;;;;;;;7.80;5.55;;;;;;;18.91;100.00;101377.94;4916361;29;20040;-82
2023/08/12 06:49:11;;;;;;;7.28;5.10;;;;;;;18.18;100.00;101245.81;4916284;29;20028;-78
2023/08/12 06:51:46;;;;;;;6.53;5.10;;;;;;;18.46;100.00;101286.84;4914170;29;20521;-81
2023/08/12 06:54:14;;;;;;;7.97;5.50;;;;;;;18.85;100.00;101336.59;4916046;29;20123;-79
2023/08/12 06:57:37;;;;;;;5.65;4.60;;;;;;;19.57;100.00;101424.38;4899486;29;20027;-79
2023/08/12 07:00:09;;;;;;;7.22;4.75;;;;;;;18.67;100.00;101278.06;4915113;29;20443;-78
2023/08/12 07:02:35;;;;;;;7.35;4.50;;;;;;;19.44;100.00;101380.09;4916393;29;20035;-79
2023/08/12 07:05:01;;;;;;;6.30;4.57;;;;;;;19.02;100.00;101303.69;4915972;29;20020;-79
2023/08/12 07:07:26;;;;;;;6.10;4.90;;;;;;;19.61;100.00;101392.50;4915962;29;20040;-80
2023/08/12 07:09:52;;;;;;;6.03;4.57;;;;;;;19.47;100.00;101366.72;4916232;29;20056;-79
2023/08/12 07:12:17;;;;;;;6.47;4.55;;;;;;;18.97;100.00;101282.31;4926132;29;20023;-78
2023/08/12 07:14:42;;;;;;;5.85;4.70;;;;;;;19.26;100.00;101327.59;4935057;29;20082;-80
2023/08/12 07:17:07;;;;;;;6.28;4.72;;;;;;;19.39;100.00;101340.41;4934867;29;20051;-79
2023/08/12 07:19:33;;;;;;;7.80;5.50;;;;;;;18.91;100.00;101257.53;4935259;29;20083;-79
2023/08/12 07:21:58;;;;;;;6.07;4.72;;;;;;;19.80;100.00;101415.22;4937066;29;20020;-79
2023/08/12 07:24:24;;;;;;;6.07;5.00;;;;;;;18.73;100.00;101240.91;4938280;29;20063;-79
2023/08/12 07:26:49;;;;;;;6.57;5.13;;;;;;;19.38;100.00;101349.25;4938308;29;20437;-79
2023/08/12 07:29:14;;;;;;;6.40;5.40;;;;;;;19.23;100.00;101319.22;4938426;29;20028;-79
2023/08/12 07:34:19;;;;;;;5.78;4.53;;;;;;;19.66;100.00;101406.00;5096429;23;20052;-80
2023/08/12 07:36:49;;;;;;;6.72;5.15;;;;;;;19.68;100.00;101416.34;4918970;29;20133;-79
2023/08/12 07:39:15;;;;;;;5.30;4.75;;;;;;;19.63;100.00;101398.41;4919246;29;20470;-80
2023/08/12 07:41:40;;;;;;;6.25;4.95;;;;;;;19.55;100.00;101376.47;4918934;29;20035;-79
2023/08/12 07:44:05;;;;;;;5.97;5.15;;;;;;;18.81;100.00;101259.34;4918969;29;20032;-79
2023/08/12 07:46:30;;;;;;;6.22;5.30;;;;;;;19.71;100.00;101410.81;4917647;29;20040;-79
2023/08/12 07:48:57;;;;;;;7.53;5.35;;;;;;;19.14;100.00;101324.31;4918945;29;20036;-79
2023/08/12 07:51:22;;;;;;;5.93;5.10;;;;;;;19.70;100.00;101403.94;4918588;29;20095;-77
2023/08/12 07:53:48;;;;;;;5.43;4.80;;;;;;;19.58;100.00;101382.31;4917344;29;20107;-79
2023/08/12 07:56:25;;;;;;;5.90;5.22;;;;;;;19.16;100.00;101301.44;4901531;29;20131;-79
2023/08/12 07:58:50;;;;;;;5.93;5.10;;;;;;;18.91;100.00;101229.59;4918413;29;20040;-78
2023/08/12 08:01:21;;;;;;;5.88;4.60;;;;;;;19.85;100.00;101378.91;4900656;29;20146;-78
2023/08/12 08:03:46;;;;;;;5.85;4.72;;;;;;;19.43;100.00;101264.03;4918611;29;20072;-78
2023/08/12 08:06:33;;;;;;;4.38;3.85;;;;;;;19.31;100.00;101227.69;4918024;29;20067;-79
2023/08/12 08:14:23;;;;;;;4.45;3.03;;;;;;;20.04;100.00;101338.69;4981191;23;20067;-81
2023/08/12 08:16:49;;;;;;;3.55;3.00;;;;;;;20.35;100.00;101391.66;4897824;29;20045;-80
2023/08/12 08:19:14;;;;;;;3.53;2.70;;;;;;;20.46;100.00;101412.50;4899750;29;20028;-81
2023/08/12 08:21:39;;;;;;;3.35;2.92;;;;;;;20.44;100.00;101417.03;4882793;29;20028;-81
2023/08/12 08:24:06;;;;;;;4.40;3.20;;;;;;;20.31;100.00;101395.56;4898080;29;20045;-83
2023/08/12 08:26:31;;;;;;;2.80;2.50;;;;;;;20.31;100.00;101383.25;4897599;29;20089;-80
2023/08/12 08:28:56;;;;;;;4.38;3.10;;;;;;;20.48;100.00;101409.72;4882493;29;20056;-81
2023/08/12 08:31:22;;;;;;;3.17;2.85;;;;;;;20.38;100.00;101391.38;4899251;29;20145;-81
2023/08/12 08:33:47;;;;;;;3.20;2.83;;;;;;;20.67;100.00;101433.22;4898875;29;20037;-81
2023/08/12 08:36:18;;;;;;;4.78;3.40;;;;;;;20.60;100.00;101434.78;4899178;29;20029;-83
2023/08/12 08:38:43;;;;;;;4.03;3.58;;;;;;;20.45;100.00;101428.38;4898994;29;20029;-84
2023/08/12 08:41:10;;;;;;;4.57;3.95;;;;;;;20.27;100.00;101413.41;4899035;29;20367;-85
2023/08/12 08:43:36;;;;;;;4.80;3.95;;;;;;;20.15;100.00;101404.03;4899185;29;20063;-80
2023/08/12 08:46:02;;;;;;;5.15;4.60;;;;;;;20.04;100.00;101401.59;4898746;29;20027;-80
2023/08/12 08:48:29;;;;;;;5.65;4.50;;;;;;;20.12;100.00;101420.06;4899056;29;20037;-81
2023/08/12 08:50:55;;;;;;;4.75;4.13;;;;;;;20.11;100.00;101413.19;4898819;29;20035;-81
2023/08/12 08:53:21;;;;;;;5.55;4.95;;;;;;;20.40;100.00;101454.19;4898878;29;20039;-80
2023/08/12 08:55:48;;;;;;;5.10;4.60;;;;;;;20.24;100.00;101439.06;4898932;29;20111;-80
2023/08/12 08:58:13;;;;;;;4.72;4.22;;;;;;;20.04;100.00;101414.72;4898731;29;20059;-83
2023/08/12 09:00:39;;;;;;;6.75;4.75;;;;;;;20.21;100.00;101460.34;4899031;29;20427;-82
2023/08/12 09:03:06;;;;;;;5.28;4.57;;;;;;;19.99;100.00;101427.44;4898862;29;20029;-80
2023/08/12 09:05:33;;;;;;;5.38;4.88;;;;;;;20.22;100.00;101452.31;4898351;29;20058;-79
2023/08/12 09:08:00;;;;;;;5.22;4.72;;;;;;;20.28;100.00;101443.06;4903250;29;20036;-81
2023/08/12 09:10:26;;;;;;;5.03;4.53;;;;;;;20.50;100.00;101458.44;4905397;29;20037;-79
2023/08/12 09:12:53;;;;;;;5.13;4.22;;;;;;;20.50;100.00;101447.13;4898756;29;20080;-81
2023/08/12 09:15:18;;;;;;;3.35;3.05;;;;;;;20.59;100.00;101464.63;4881166;29;20084;-81
2023/08/12 09:17:44;;;;;;;3.13;2.40;;;;;;;20.68;100.00;101466.38;4898382;29;20068;-81
2023/08/12 09:20:13;;;;;;;2.75;2.20;;;;;;;20.74;100.00;101473.63;4898561;29;20084;-81
2023/08/12 09:22:40;;;;;;;2.65;2.33;;;;;;;20.78;100.00;101467.16;4898223;29;20474;-81
2023/08/12 09:25:06;;;;;;;4.00;2.40;;;;;;;21.11;100.00;101485.84;4898242;29;20501;-81
2023/08/12 09:27:32;;;;;;;2.15;1.90;;;;;;;21.32;100.00;101489.03;4898094;29;20057;-83
2023/08/12 09:29:58;;;;;;;3.13;1.95;;;;;;;21.23;100.00;101473.31;4898438;29;20021;-81
2023/08/12 09:32:24;;;;;;;2.10;1.73;;;;;;;21.40;100.00;101511.94;4898378;29;20029;-80
2023/08/12 09:34:54;;;;;;;2.63;1.80;;;;;;;21.35;100.00;101480.06;4898068;29;20029;-82
2023/08/12 09:37:20;;;;;;;1.85;1.52;;;;;;;21.72;100.00;101512.22;4898238;29;20036;-81
2023/08/12 09:39:48;;;;;;;1.88;1.25;;;;;;;21.97;100.00;101509.78;4897850;29;20024;-82
2023/08/12 09:42:14;;;;;;;2.47;1.50;;;;;;;22.17;100.00;101484.94;4897919;29;20040;-82
2023/08/12 09:44:40;;;;;;;1.70;1.50;;;;;;;22.51;100.00;101518.31;4897677;29;20025;-81
2023/08/12 09:47:08;;;;;;;2.45;1.95;;;;;;;22.55;100.00;101509.97;4897977;29;20044;-81
2023/08/12 09:49:33;;;;;;;2.80;1.92;;;;;;;22.51;100.00;101482.28;4897862;29;20036;-82
2023/08/12 09:51:59;;;;;;;2.72;2.38;;;;;;;22.59;100.00;101487.59;4897892;29;20029;-80
2023/08/12 09:54:30;;;;;;;2.47;2.20;;;;;;;22.72;100.00;101484.53;4897686;29;20053;-81
2023/08/12 09:56:59;;;;;;;4.28;2.60;;;;;;;22.66;100.00;101506.22;4897755;29;20033;-79
2023/08/12 09:59:27;;;;;;;3.65;2.30;;;;;;;22.04;100.00;101480.06;4897686;29;20021;-80
2023/08/12 10:01:56;;;;;;;3.92;2.08;;;;;;;22.11;100.00;101516.28;4897947;29;20032;-81
2023/08/12 10:04:29;;;;;;;4.35;2.20;;;;;;;21.72;100.00;101503.50;4897571;29;20124;-82
2023/08/12 10:06:55;;;;;;;4.72;2.65;;;;;;;21.61;100.00;101506.38;4897753;29;20092;-81
2023/08/12 10:09:20;;;;;;;4.22;2.42;;;;;;;21.78;100.00;101526.56;4897260;29;20040;-80
2023/08/12 10:11:46;;;;;;;3.92;2.47;;;;;;;21.74;99.84;101525.22;4897566;29;20039;-81
2023/08/12 10:14:13;;;;;;;5.13;2.30;;;;;;;21.83;99.46;101528.72;4880885;29;20068;-81
2023/08/12 10:16:39;;;;;;;4.13;2.10;;;;;;;21.80;100.00;101492.22;4897489;29;20045;-80
2023/08/12 10:19:05;;;;;;;4.97;2.85;;;;;;;22.39;97.95;101533.56;4896459;29;20045;-79
2023/08/12 10:21:31;;;;;;;4.38;2.40;;;;;;;22.48;94.19;101511.56;4897643;29;20387;-81
2023/08/12 10:24:03;;;;;;;5.15;2.80;;;;;;;22.75;95.07;101528.97;4897207;29;20021;-82
2023/08/12 10:26:29;;;;;;;5.28;2.72;;;;;;;22.84;92.43;101535.94;4896498;29;20033;-81
2023/08/12 10:28:54;;;;;;;3.50;2.08;;;;;;;22.61;95.96;101490.06;4898130;29;20462;-81
2023/08/12 10:31:20;;;;;;;6.75;2.15;;;;;;;23.11;95.55;101526.16;4897384;29;20029;-81
2023/08/12 10:33:49;;;;;;;6.15;1.88;;;;;;;23.15;92.50;101519.56;4897392;29;20104;-82
2023/08/12 10:36:15;;;;;;;3.97;1.80;;;;;;;23.29;90.93;101512.81;4897379;29;20378;-79
2023/08/12 10:38:41;;;;;;;4.18;1.65;;;;;;;23.42;91.39;101516.63;4897156;29;20025;-80
2023/08/12 10:41:17;;;;;;;6.13;1.90;;;;;;;23.55;88.23;101517.94;4897615;29;20107;-78
2023/08/12 10:44:04;;;;;;;4.70;1.80;;;;;;;23.48;88.04;101505.41;4897261;29;20482;-82
2023/08/12 10:46:34;;;;;;;5.13;1.45;;;;;;;23.68;86.26;101521.75;4897020;29;20028;-82
2023/08/12 10:49:07;;;;;;;3.75;1.27;;;;;;;23.85;87.57;101524.41;4897048;29;20482;-83
2023/08/12 10:51:39;;;;;;;5.15;1.25;;;;;;;23.85;85.01;101529.69;4896970;29;20052;-79
2023/08/12 10:54:17;;;;;;;4.38;1.20;;;;;;;23.98;88.29;101507.06;4897838;29;20040;-81
2023/08/12 10:57:02;;;;;;;5.22;1.15;;;;;;;24.39;86.85;101516.75;4899221;29;20498;-78
2023/08/12 10:59:45;;;;;;;4.97;1.42;;;;;;;24.40;82.14;101519.22;4900845;29;20449;-82
2023/08/12 11:02:32;;;;;;;4.32;1.23;;;;;;;24.12;79.06;101524.03;4901207;29;20391;-82
2023/08/12 11:05:09;;;;;;;4.85;1.33;;;;;;;24.14;79.23;101524.69;4884178;29;20044;-82
2023/08/12 11:07:43;;;;;;;4.95;1.33;;;;;;;24.22;80.35;101537.03;4900832;29;20084;-81
2023/08/12 11:10:12;;;;;;;5.00;1.40;;;;;;;24.31;79.51;101525.50;4898536;29;20044;-82
2023/08/12 11:12:45;;;;;;;4.13;1.23;;;;;;;24.07;76.85;101517.59;4900914;29;20482;-80
2023/08/12 11:15:11;;;;;;;3.72;1.20;;;;;;;23.79;79.37;101498.69;4900802;29;20040;-82
2023/08/12 11:17:41;;;;;;;6.10;1.40;;;;;;;23.97;75.36;101529.16;4900583;29;20028;-81
2023/08/12 11:20:11;;;;;;;3.58;1.17;;;;;;;23.92;70.48;101525.38;4900501;29;20545;-80
2023/08/12 11:22:39;;;;;;;5.15;1.52;;;;;;;23.79;75.71;101491.59;4900667;29;20059;-82